Yankee Lake, Ohio
Current Conditions -  °F | °C
As of 4:51 PM on Thursday 27 Nov 2014 (Local Time) from KYNG Reporting Station
Light Snow Light Snow  
Wind Chill: 20°   Ceiling: 3800
Heat Index: 29°   Visibility: 9mi
Dew Point: 22°   Wind: 9mph
Humidity: 75%   Direction: 290°WNW
Pressure: 30.13"   Gusts: 18mph
Location:  41.2384°N, 80.5799°W
Report Text: KYNG 272151Z 29008G16KT 9SM -SN FEW020 BKN038 OVC049 M02/M06 A3013 RMK AO2 SLP217 P0000 T10171056
Loading
Personal Weather Stations






























Interactive Weather Map New forecast layout! Learn more

10-Day Weather Forecast

Advertisements
Track Severe Weather on mobile